Terminal Aerodrome Forecast
Issued by NWS Caribou, ME

Home | Current Version | Previous Version | Text Only | Print | Product List | Glossary On
Versions: 1 2 3 4 5 6 7 8 9 10 11 12 13 14 15 16 17 18 19 20 21 22
000
FTUS41 KCAR 240117 AAB
TAFCAR
TAF AMD
KCAR 240117Z 2401/2424 22006KT P6SM SCT080
     FM240730 21008KT P6SM -SHRA BKN035
     FM241200 25010KT P6SM BKN040
     FM241500 28015G23KT P6SM SCT045
     FM242200 25009KT P6SM FEW100=

USA.gov is the U.S. government's official web portal to all federal, state and local government web resources and services.